Time;durP1;ratioP1;P1;durP2;ratioP2;P2;SDS_P1;SDS_P2;PMS_P1;PMS_P2;Temp;Humidity;BMP_temperature;BMP_pressure;BME280_temperature;BME280_humidity;BME280_pressure;Samples;Min_cycle;Max_cycle;Signal;HPM_P1;HPM_P2
2024/04/16 00:01:24;;;;;;;2.35;0.77;;;;;;;17.21;52.89;99936.69;11391668;26;20444;-58
2024/04/16 00:06:25;;;;;;;1.25;0.93;;;;;;;17.24;52.47;99930.72;11423453;26;20003;-58
2024/04/16 00:11:26;;;;;;;3.00;0.65;;;;;;;17.23;52.52;99931.81;11424004;26;20025;-58
2024/04/16 00:16:26;;;;;;;2.65;0.70;;;;;;;17.25;52.43;99925.03;11423002;26;20023;-57
2024/04/16 00:21:26;;;;;;;4.00;1.08;;;;;;;17.27;52.95;99929.28;11462765;25;19992;-58
2024/04/16 00:26:27;;;;;;;3.50;0.85;;;;;;;17.24;52.46;99911.94;11474605;25;20006;-58
2024/04/16 00:31:27;;;;;;;2.50;0.80;;;;;;;17.24;52.15;99910.06;11423139;26;19998;-58
2024/04/16 00:36:28;;;;;;;1.65;0.77;;;;;;;17.21;52.62;99904.53;11422477;26;20004;-58
2024/04/16 00:41:29;;;;;;;2.30;0.60;;;;;;;17.20;52.56;99895.72;11423472;26;20001;-58
2024/04/16 00:46:29;;;;;;;2.72;0.95;;;;;;;17.20;52.63;99890.34;11422008;26;20299;-58
2024/04/16 00:51:30;;;;;;;2.47;0.80;;;;;;;17.20;52.23;99887.66;11433062;25;19989;-58
2024/04/16 00:56:31;;;;;;;2.65;0.90;;;;;;;17.20;52.67;99876.97;11466032;25;20060;-58
2024/04/16 01:01:32;;;;;;;6.55;1.02;;;;;;;17.20;52.23;99866.25;11467179;25;20538;-58
2024/04/16 01:06:32;;;;;;;3.58;1.13;;;;;;;17.21;52.48;99865.13;11498985;25;19999;-58
2024/04/16 01:11:33;;;;;;;3.00;1.20;;;;;;;17.21;52.35;99865.13;11470553;25;20878;-58
2024/04/16 01:16:33;;;;;;;4.63;1.17;;;;;;;17.19;52.18;99847.81;11420122;25;20969;-58
2024/04/16 01:21:33;;;;;;;3.33;1.10;;;;;;;17.17;52.46;99829.34;11421123;26;20248;-59
2024/04/16 01:26:34;;;;;;;3.38;0.80;;;;;;;17.16;52.23;99832.31;11387198;26;20259;-58
2024/04/16 01:31:34;;;;;;;6.32;1.27;;;;;;;17.17;52.91;99826.69;11426609;26;20001;-59
2024/04/16 01:36:34;;;;;;;3.42;1.00;;;;;;;17.15;52.85;99825.38;11452660;25;20589;-59
2024/04/16 01:41:35;;;;;;;4.70;1.07;;;;;;;17.12;53.00;99826.78;11428847;26;20722;-58
2024/04/16 01:46:35;;;;;;;3.50;1.00;;;;;;;17.13;52.62;99820.34;11427832;26;20226;-58
2024/04/16 01:51:35;;;;;;;5.30;1.07;;;;;;;17.10;53.06;99826.31;11427930;26;20226;-59
2024/04/16 01:56:36;;;;;;;2.80;0.87;;;;;;;17.11;52.31;99817.19;11427194;26;20226;-58
2024/04/16 02:01:36;;;;;;;3.22;1.23;;;;;;;17.11;52.15;99803.78;11428615;26;20226;-58
2024/04/16 02:06:36;;;;;;;2.40;0.80;;;;;;;17.15;52.60;99788.66;11426961;26;19989;-58
2024/04/16 02:11:37;;;;;;;2.42;0.70;;;;;;;17.15;52.68;99793.25;11427822;26;20901;-58
2024/04/16 02:16:37;;;;;;;3.63;0.60;;;;;;;17.15;52.15;99785.19;11499275;25;20038;-58
2024/04/16 02:21:37;;;;;;;2.63;1.10;;;;;;;17.14;52.40;99821.13;11504910;25;20785;-58
2024/04/16 02:26:38;;;;;;;2.80;0.80;;;;;;;17.12;52.05;99834.03;11475913;25;20263;-58
2024/04/16 02:31:38;;;;;;;4.13;1.07;;;;;;;17.10;52.83;99823.63;11426728;26;20716;-57
2024/04/16 02:36:38;;;;;;;1.50;0.63;;;;;;;17.10;52.35;99823.63;11393473;26;20250;-56
2024/04/16 02:41:38;;;;;;;3.93;0.73;;;;;;;17.13;52.11;99806.16;11426586;26;20271;-59
2024/04/16 02:46:39;;;;;;;1.60;0.60;;;;;;;17.12;52.48;99813.41;11425432;26;20254;-58
2024/04/16 02:51:39;;;;;;;2.17;0.70;;;;;;;17.12;52.10;99796.53;11426324;26;20218;-59
2024/04/16 02:56:39;;;;;;;1.13;0.57;;;;;;;17.10;52.22;99788.03;11394363;26;20917;-59
2024/04/16 03:01:40;;;;;;;1.63;0.57;;;;;;;17.11;52.39;99789.59;11467005;25;20314;-58
2024/04/16 03:06:40;;;;;;;2.00;0.80;;;;;;;17.16;51.98;99776.84;11503555;25;19997;-58
2024/04/16 03:11:40;;;;;;;1.33;0.83;;;;;;;17.19;52.56;99791.53;11471715;25;20215;-58
2024/04/16 03:16:41;;;;;;;3.57;1.00;;;;;;;17.16;52.04;99771.50;11425750;26;20211;-58
2024/04/16 03:21:41;;;;;;;3.60;0.63;;;;;;;17.13;52.33;99766.75;11424908;26;20565;-59
2024/04/16 03:26:41;;;;;;;2.53;0.40;;;;;;;17.14;52.25;99762.19;11425200;26;20334;-59
2024/04/16 03:31:42;;;;;;;1.90;0.57;;;;;;;17.12;52.30;99756.38;11424449;26;20218;-58
2024/04/16 03:36:42;;;;;;;1.75;0.50;;;;;;;17.10;52.48;99761.25;11424631;26;20781;-59
2024/04/16 03:41:42;;;;;;;1.07;0.40;;;;;;;17.16;52.24;99730.53;11361099;26;19994;-57
2024/04/16 03:46:43;;;;;;;2.27;0.50;;;;;;;17.24;52.24;99705.66;11392368;26;20579;-57
2024/04/16 03:51:43;;;;;;;1.50;0.33;;;;;;;17.23;52.52;99706.78;11415932;26;20222;-58
2024/04/16 03:56:43;;;;;;;1.20;0.57;;;;;;;17.24;53.00;99694.94;11465701;25;20229;-57
2024/04/16 04:01:44;;;;;;;1.50;0.55;;;;;;;17.24;52.80;99687.69;11501123;25;20222;-57
2024/04/16 04:06:45;;;;;;;1.70;0.50;;;;;;;17.35;53.04;99687.41;11478666;25;20053;-56
2024/04/16 04:11:45;;;;;;;1.75;0.60;;;;;;;17.31;52.89;99670.41;11420123;26;20021;-58
2024/04/16 04:16:46;;;;;;;0.70;0.30;;;;;;;17.24;53.09;99660.13;11421166;26;19989;-56
2024/04/16 04:21:46;;;;;;;1.27;0.60;;;;;;;17.21;53.49;99658.88;11420270;26;20962;-57
2024/04/16 04:26:46;;;;;;;1.63;0.37;;;;;;;17.17;53.58;99641.06;11421025;26;19997;-57
2024/04/16 04:31:47;;;;;;;0.80;0.30;;;;;;;17.17;53.63;99649.09;11419747;26;20273;-57
2024/04/16 04:36:47;;;;;;;3.93;0.87;;;;;;;17.16;52.92;99642.94;11425608;25;20000;-57
2024/04/16 04:41:47;;;;;;;2.60;0.50;;;;;;;17.12;53.43;99622.44;11496100;25;20210;-55
2024/04/16 04:46:48;;;;;;;0.60;0.40;;;;;;;17.11;53.04;99618.97;11464593;25;20262;-57
2024/04/16 04:51:48;;;;;;;1.25;0.52;;;;;;;17.11;53.78;99605.59;11419099;25;20234;-57
2024/04/16 04:56:49;;;;;;;2.57;0.67;;;;;;;17.12;53.41;99617.09;11419482;26;20526;-55
2024/04/16 05:01:49;;;;;;;1.30;0.60;;;;;;;17.08;53.35;99602.75;11416083;26;20218;-58
2024/04/16 05:06:49;;;;;;;1.80;0.50;;;;;;;17.14;53.16;99596.91;11426784;26;19997;-56
2024/04/16 05:11:50;;;;;;;9.83;1.97;;;;;;;17.20;53.60;99584.97;11447199;25;20342;-58
2024/04/16 05:16:50;;;;;;;3.70;0.73;;;;;;;17.27;53.46;99568.41;11426802;26;20222;-57
2024/04/16 05:21:50;;;;;;;10.63;1.27;;;;;;;17.37;53.26;99570.00;11446098;25;20221;-58
2024/04/16 05:26:51;;;;;;;4.77;0.60;;;;;;;17.39;53.78;99559.75;11425408;26;20222;-59
2024/04/16 05:31:51;;;;;;;8.95;1.15;;;;;;;17.46;54.44;99560.88;11409437;26;20352;-57
2024/04/16 05:36:51;;;;;;;3.63;0.70;;;;;;;17.30;54.26;99543.69;11384592;26;20002;-56
2024/04/16 05:41:52;;;;;;;6.68;0.57;;;;;;;17.25;54.37;99530.44;11432999;25;20218;-55
2024/04/16 05:46:54;;;;;;;2.70;1.20;;;;;;;17.25;54.87;99549.97;11447535;25;20005;-56
2024/04/16 05:51:57;;;;;;;3.10;0.75;;;;;;;17.22;54.38;99560.53;11426243;26;19989;-56
2024/04/16 05:56:58;;;;;;;9.23;1.70;;;;;;;17.23;55.27;99556.75;11426984;25;19993;-56
2024/04/16 06:01:59;;;;;;;4.03;1.00;;;;;;;17.15;55.02;99544.91;11424631;26;20013;-56
2024/04/16 06:06:59;;;;;;;9.70;1.33;;;;;;;17.08;55.02;99547.28;11426897;26;20004;-56
2024/04/16 06:11:59;;;;;;;6.50;1.47;;;;;;;17.07;54.50;99544.94;11424692;26;20278;-56
2024/04/16 06:17:00;;;;;;;9.40;1.30;;;;;;;17.08;54.93;99544.63;11426570;26;20320;-56
2024/04/16 06:22:00;;;;;;;12.00;3.63;;;;;;;17.10;54.63;99546.97;11426184;26;20307;-57
2024/04/16 06:27:00;;;;;;;5.87;0.97;;;;;;;17.05;55.05;99555.97;11430380;25;20260;-57
2024/04/16 06:32:01;;;;;;;5.77;1.37;;;;;;;17.07;55.02;99547.63;11466127;25;20206;-55
2024/04/16 06:37:01;;;;;;;9.02;1.45;;;;;;;17.07;54.87;99559.13;11476244;25;20263;-58
2024/04/16 06:42:02;;;;;;;6.20;1.57;;;;;;;17.05;54.71;99547.94;11455598;25;20057;-57
2024/04/16 06:47:02;;;;;;;6.18;1.75;;;;;;;17.05;55.45;99565.84;11426050;26;20210;-58
2024/04/16 06:52:03;;;;;;;4.45;0.80;;;;;;;17.05;54.90;99572.03;11387392;26;20013;-58
2024/04/16 06:57:03;;;;;;;3.65;0.57;;;;;;;17.05;54.85;99571.22;11419665;26;20735;-58
2024/04/16 07:02:04;;;;;;;3.83;1.10;;;;;;;17.04;54.43;99577.66;11423359;26;19997;-58
2024/04/16 07:07:04;;;;;;;4.70;0.77;;;;;;;17.02;54.92;99567.28;11423110;26;20012;-58
2024/04/16 07:12:04;;;;;;;5.67;1.27;;;;;;;17.07;54.85;99569.03;11391745;26;20776;-58
2024/04/16 07:17:05;;;;;;;3.92;1.02;;;;;;;17.06;54.92;99570.94;11426207;26;20270;-57
2024/04/16 07:22:05;;;;;;;2.30;0.70;;;;;;;17.06;54.53;99576.28;11422376;26;20012;-55
2024/04/16 07:27:05;;;;;;;5.43;1.35;;;;;;;17.04;54.95;99578.47;11422060;26;20262;-54
2024/04/16 07:32:06;;;;;;;6.07;1.47;;;;;;;17.08;54.46;99582.13;11408183;25;20005;-54
2024/04/16 07:37:06;;;;;;;2.00;0.80;;;;;;;17.09;54.32;99586.38;11379281;26;20241;-55
2024/04/16 07:42:06;;;;;;;2.53;1.00;;;;;;;17.05;54.60;99592.63;11424511;26;20013;-55
2024/04/16 07:47:07;;;;;;;2.17;0.70;;;;;;;17.04;54.70;99599.09;11423299;26;20848;-54
2024/04/16 07:52:07;;;;;;;3.42;1.33;;;;;;;17.02;54.83;99618.16;11424045;26;20001;-55
2024/04/16 07:57:07;;;;;;;5.03;1.37;;;;;;;16.99;55.34;99645.56;11423558;26;19997;-51
2024/04/16 08:02:08;;;;;;;8.07;1.30;;;;;;;17.02;55.17;99649.50;11422579;26;20215;-55
2024/04/16 08:07:08;;;;;;;5.13;1.33;;;;;;;17.02;54.54;99652.97;11423485;26;20222;-53
2024/04/16 08:12:08;;;;;;;2.87;0.77;;;;;;;17.00;54.44;99665.88;11422986;26;20218;-54
2024/04/16 08:17:09;;;;;;;3.17;0.80;;;;;;;17.05;54.79;99670.31;11422181;26;20226;-54
2024/04/16 08:22:09;;;;;;;4.97;1.00;;;;;;;17.04;54.36;99682.91;11422439;26;20848;-54
2024/04/16 08:27:09;;;;;;;5.30;0.90;;;;;;;17.04;54.42;99677.53;11422836;26;20313;-54
2024/04/16 08:32:09;;;;;;;3.10;1.10;;;;;;;17.06;54.48;99696.00;11432265;25;20222;-55
2024/04/16 08:37:10;;;;;;;3.93;1.10;;;;;;;17.08;54.99;99709.88;11422889;26;19998;-54
2024/04/16 08:42:11;;;;;;;3.97;0.97;;;;;;;17.04;54.49;99712.38;11428713;26;20314;-54
2024/04/16 08:47:12;;;;;;;2.63;1.00;;;;;;;17.01;54.94;99713.00;11429677;26;20222;-53
2024/04/16 08:52:13;;;;;;;2.25;0.60;;;;;;;16.94;55.53;99739.44;11429636;26;20314;-54
2024/04/16 08:57:14;;;;;;;3.13;1.00;;;;;;;16.93;54.90;99754.72;11396948;26;19993;-55
2024/04/16 09:02:15;;;;;;;3.58;0.88;;;;;;;16.94;55.03;99775.03;11427685;26;20020;-54
2024/04/16 09:07:16;;;;;;;3.03;1.00;;;;;;;16.89;55.53;99785.06;11429165;26;19989;-54
2024/04/16 09:12:16;;;;;;;4.53;1.05;;;;;;;16.92;55.32;99798.63;11419025;25;20012;-53
2024/04/16 09:17:16;;;;;;;3.53;1.13;;;;;;;16.91;54.96;99817.69;11428602;25;20000;-51
2024/04/16 09:22:17;;;;;;;3.83;0.98;;;;;;;16.86;55.27;99826.63;11427980;26;20396;-55
2024/04/16 09:27:18;;;;;;;4.35;0.75;;;;;;;16.89;55.14;99847.44;11428333;26;20009;-53
2024/04/16 09:32:18;;;;;;;3.50;1.10;;;;;;;16.90;55.07;99849.03;11367480;25;19994;-54
2024/04/16 09:37:19;;;;;;;3.85;0.80;;;;;;;16.87;54.92;99865.69;11427402;26;20214;-54
2024/04/16 09:42:23;;;;;;;2.00;0.80;;;;;;;16.87;55.15;99880.97;11393726;26;20001;-54
2024/04/16 09:47:25;;;;;;;3.90;0.98;;;;;;;16.82;55.47;99887.25;11353746;26;20005;-54
2024/04/16 09:52:26;;;;;;;3.15;0.80;;;;;;;16.79;55.28;99905.78;11425486;26;20631;-54
2024/04/16 09:57:28;;;;;;;2.22;0.80;;;;;;;16.77;55.27;99919.47;11421681;26;19993;-54
2024/04/16 10:02:31;;;;;;;2.58;0.82;;;;;;;16.80;55.35;99929.59;11421115;26;20004;-55
2024/04/16 10:07:31;;;;;;;6.10;1.10;;;;;;;16.82;54.97;99948.84;11393126;26;20004;-53
2024/04/16 10:12:33;;;;;;;3.63;0.70;;;;;;;16.82;55.47;99945.38;11406331;25;20034;-54
2024/04/16 10:17:48;;;;;;;3.70;0.90;;;;;;;16.83;55.54;99954.97;11403908;25;20314;-52
2024/04/16 10:23:00;;;;;;;2.83;0.50;;;;;;;16.82;55.66;99962.22;11423888;25;20001;-53
2024/04/16 10:28:04;;;;;;;1.52;0.98;;;;;;;16.84;55.46;99975.31;11400754;25;20097;-55
2024/04/16 10:33:10;;;;;;;2.72;0.80;;;;;;;16.88;55.28;99989.66;11390602;25;20507;-53
2024/04/16 10:38:11;;;;;;;1.52;0.57;;;;;;;16.90;55.06;99998.97;11397115;25;20407;-55
2024/04/16 10:43:11;;;;;;;4.10;0.88;;;;;;;16.86;55.40;99984.63;11413353;26;19997;-53
2024/04/16 10:48:12;;;;;;;2.60;0.77;;;;;;;16.89;54.88;99996.59;11395547;25;20448;-55
2024/04/16 10:53:18;;;;;;;3.08;0.60;;;;;;;16.83;54.91;100008.53;11425253;26;20716;-54
2024/04/16 10:58:18;;;;;;;1.50;0.63;;;;;;;16.80;54.98;100019.81;11408667;26;19993;-54
2024/04/16 11:03:19;;;;;;;2.67;0.60;;;;;;;16.80;55.39;100023.28;11409364;25;19998;-54
2024/04/16 11:08:19;;;;;;;2.08;0.90;;;;;;;16.82;55.61;100033.72;11387970;26;20398;-53
2024/04/16 11:13:19;;;;;;;2.72;0.70;;;;;;;16.80;55.73;100047.38;11409421;25;20094;-54
2024/04/16 11:18:19;;;;;;;1.77;0.90;;;;;;;16.82;55.63;100055.94;11388242;25;19994;-54
2024/04/16 11:23:20;;;;;;;2.13;0.60;;;;;;;16.81;55.92;100074.94;11388860;26;20215;-55
2024/04/16 11:28:20;;;;;;;1.40;0.68;;;;;;;16.88;56.24;100067.31;11402087;25;20216;-51
2024/04/16 11:33:21;;;;;;;1.83;0.40;;;;;;;16.97;56.12;100054.03;11403061;25;19997;-52
2024/04/16 11:38:21;;;;;;;2.17;0.68;;;;;;;17.02;55.77;100056.56;11393413;26;20224;-53
2024/04/16 11:43:22;;;;;;;2.53;0.90;;;;;;;17.08;56.03;100066.09;11407856;26;20527;-54
2024/04/16 11:48:23;;;;;;;0.93;0.57;;;;;;;17.12;55.59;100077.78;11422434;26;20302;-53
2024/04/16 11:53:24;;;;;;;0.85;0.65;;;;;;;17.04;55.77;100094.56;11383406;26;20219;-54
2024/04/16 11:58:24;;;;;;;5.55;1.00;;;;;;;16.94;56.32;100109.78;11423637;26;19993;-53
2024/04/16 12:03:25;;;;;;;2.77;0.80;;;;;;;16.91;56.39;100128.28;11424004;26;19997;-54
2024/04/16 12:08:25;;;;;;;2.23;0.60;;;;;;;16.86;56.31;100139.13;11424372;26;20917;-53
2024/04/16 12:13:25;;;;;;;10.77;1.20;;;;;;;16.87;56.57;100122.75;11380855;26;20234;-54
2024/04/16 12:18:25;;;;;;;3.90;0.70;;;;;;;17.03;55.96;100144.66;11421794;25;20218;-53
2024/04/16 12:23:26;;;;;;;8.00;1.30;;;;;;;17.06;56.01;100148.66;11423669;26;20374;-56
2024/04/16 12:28:26;;;;;;;22.17;2.93;;;;;;;17.06;56.83;100159.38;11422340;26;20429;-55
2024/04/16 12:33:26;;;;;;;12.60;3.60;;;;;;;17.05;57.02;100165.78;11391477;25;20309;-55
2024/04/16 12:38:27;;;;;;;15.73;2.73;;;;;;;17.11;57.95;100162.72;11380888;26;20223;-55
2024/04/16 12:43:27;;;;;;;15.63;2.05;;;;;;;17.12;57.94;100172.34;11371700;26;20267;-56
2024/04/16 12:48:30;;;;;;;16.42;2.78;;;;;;;17.11;57.53;100170.75;11419494;26;20022;-55
2024/04/16 12:53:31;;;;;;;8.63;1.65;;;;;;;17.21;57.18;100173.22;11417666;26;19993;-56
2024/04/16 12:58:31;;;;;;;10.70;2.22;;;;;;;17.22;57.31;100190.09;11421397;26;20065;-56
2024/04/16 13:03:31;;;;;;;13.83;2.40;;;;;;;17.23;56.99;100187.13;11421327;26;20074;-56
2024/04/16 13:08:32;;;;;;;12.52;2.47;;;;;;;17.24;57.36;100203.97;11419608;26;20308;-54
2024/04/16 13:13:32;;;;;;;13.93;2.30;;;;;;;17.18;57.59;100224.75;11421309;26;20022;-56
2024/04/16 13:18:35;;;;;;;24.33;2.97;;;;;;;17.19;59.23;100234.38;11419948;26;20300;-56
2024/04/16 13:23:36;;;;;;;16.20;3.00;;;;;;;17.16;58.68;100226.91;11421422;26;20227;-55
2024/04/16 13:28:39;;;;;;;14.07;2.28;;;;;;;17.13;57.94;100229.38;11427596;26;20015;-54
2024/04/16 13:33:39;;;;;;;9.60;1.75;;;;;;;17.24;57.91;100230.78;11437378;25;19993;-54
2024/04/16 13:38:39;;;;;;;14.27;2.05;;;;;;;17.26;57.80;100231.28;11427804;26;20001;-56
2024/04/16 13:43:40;;;;;;;14.43;2.77;;;;;;;17.22;59.19;100244.47;11428851;26;20008;-56
2024/04/16 13:48:40;;;;;;;15.13;2.93;;;;;;;17.18;58.38;100272.16;11428259;26;20263;-55
2024/04/16 13:53:40;;;;;;;13.40;2.67;;;;;;;17.25;59.53;100273.34;11427631;26;20219;-57
2024/04/16 13:58:41;;;;;;;27.63;3.53;;;;;;;17.19;58.83;100282.59;11426193;26;20272;-55
2024/04/16 14:03:41;;;;;;;31.53;4.50;;;;;;;17.18;58.96;100283.69;11426450;26;20401;-54
2024/04/16 14:08:41;;;;;;;95.00;10.50;;;;;;;17.14;59.17;100276.50;11408046;26;20211;-54
2024/04/16 14:13:42;;;;;;;75.05;8.38;;;;;;;17.19;58.99;100281.78;11419327;25;20226;-55
2024/04/16 14:18:52;;;;;;;50.20;6.75;;;;;;;17.21;59.34;100290.31;11410215;26;20033;-55
2024/04/16 14:23:52;;;;;;;39.20;5.85;;;;;;;17.23;58.73;100283.56;11380926;26;19994;-56
2024/04/16 14:28:53;;;;;;;24.98;4.18;;;;;;;17.20;58.28;100294.09;11415132;26;19998;-55
2024/04/16 14:33:53;;;;;;;22.10;4.70;;;;;;;17.17;58.79;100295.50;11414960;25;20449;-54
2024/04/16 14:38:53;;;;;;;15.43;3.67;;;;;;;17.17;57.98;100308.88;11392753;26;20250;-50
2024/04/16 14:43:54;;;;;;;29.13;4.27;;;;;;;17.16;57.98;100311.84;11402326;26;20222;-56
2024/04/16 14:48:54;;;;;;;23.92;5.32;;;;;;;17.14;58.42;100322.84;11392753;26;20215;-56
2024/04/16 14:53:54;;;;;;;21.50;4.33;;;;;;;17.11;58.30;100328.81;11423454;25;20001;-55
2024/04/16 14:58:55;;;;;;;12.18;3.60;;;;;;;17.08;58.44;100323.25;11426326;26;20277;-56
2024/04/16 15:03:55;;;;;;;10.97;3.40;;;;;;;17.04;58.29;100330.25;11425018;26;20060;-55
2024/04/16 15:08:55;;;;;;;13.13;4.25;;;;;;;17.03;58.56;100342.06;11425436;26;20244;-55
2024/04/16 15:13:56;;;;;;;18.37;3.80;;;;;;;17.02;58.74;100345.84;11415157;25;20008;-55
2024/04/16 15:18:56;;;;;;;12.23;2.87;;;;;;;16.98;58.36;100358.22;11423430;26;20286;-56
2024/04/16 15:23:56;;;;;;;9.63;3.30;;;;;;;16.98;58.15;100366.28;11424193;26;20263;-56
2024/04/16 15:28:57;;;;;;;13.23;3.17;;;;;;;16.96;58.55;100388.00;11424182;26;20226;-56
2024/04/16 15:33:57;;;;;;;9.73;2.47;;;;;;;16.94;58.13;100404.34;11435361;25;20222;-56
2024/04/16 15:38:57;;;;;;;14.37;3.17;;;;;;;16.92;57.99;100408.38;11424219;26;20206;-56
2024/04/16 15:43:59;;;;;;;19.08;4.47;;;;;;;16.90;58.73;100418.59;11424748;26;20226;-56
2024/04/16 15:49:00;;;;;;;5.13;1.90;;;;;;;16.88;59.10;100418.91;11422544;26;20005;-55
2024/04/16 15:54:00;;;;;;;6.40;2.00;;;;;;;16.87;59.04;100425.34;11424855;26;20072;-54
2024/04/16 15:59:00;;;;;;;8.97;2.63;;;;;;;16.86;58.83;100434.47;11424179;26;20280;-54
2024/04/16 16:04:01;;;;;;;4.85;1.92;;;;;;;16.87;58.39;100443.28;11391005;25;20222;-55
2024/04/16 16:09:02;;;;;;;8.30;2.35;;;;;;;16.86;58.16;100455.88;11422331;26;20073;-54
2024/04/16 16:14:02;;;;;;;4.65;1.77;;;;;;;16.85;58.28;100464.22;11388787;25;20025;-54
2024/04/16 16:19:03;;;;;;;5.05;2.00;;;;;;;16.89;58.30;100465.22;11420671;25;20444;-51
2024/04/16 16:24:03;;;;;;;13.63;2.87;;;;;;;17.23;60.34;100464.97;11418130;26;19998;-53
2024/04/16 16:29:03;;;;;;;5.35;1.85;;;;;;;17.46;61.01;100472.09;11417599;26;20214;-54
2024/04/16 16:34:08;;;;;;;14.60;2.42;;;;;;;17.56;60.37;100479.19;11407128;26;20008;-55
2024/04/16 16:39:09;;;;;;;14.88;2.55;;;;;;;17.57;60.13;100488.81;11492516;25;19993;-57
2024/04/16 16:44:09;;;;;;;12.45;3.67;;;;;;;17.45;60.15;100488.47;11466380;25;20328;-54
2024/04/16 16:49:09;;;;;;;10.70;2.30;;;;;;;17.33;60.03;100498.84;11494562;25;19997;-56
2024/04/16 16:54:10;;;;;;;13.45;2.35;;;;;;;17.24;60.51;100488.78;11487645;25;20312;-56
2024/04/16 16:59:10;;;;;;;15.63;2.43;;;;;;;17.11;60.63;100499.44;11438821;25;20488;-56
2024/04/16 17:04:10;;;;;;;12.40;2.90;;;;;;;17.02;60.67;100519.94;11441769;25;20273;-56
2024/04/16 17:09:10;;;;;;;12.27;2.90;;;;;;;16.99;60.61;100518.63;11465895;25;20227;-55
2024/04/16 17:14:11;;;;;;;9.93;3.03;;;;;;;16.97;60.11;100525.38;11428435;26;20708;-56
2024/04/16 17:19:11;;;;;;;9.43;2.90;;;;;;;16.95;60.02;100531.03;11449911;25;20229;-56
2024/04/16 17:24:13;;;;;;;4.35;2.40;;;;;;;16.92;59.95;100534.25;11506180;25;20273;-56
2024/04/16 17:29:13;;;;;;;4.10;1.48;;;;;;;16.90;59.55;100545.25;11405553;26;20013;-56
2024/04/16 17:34:14;;;;;;;5.17;2.50;;;;;;;16.90;59.31;100545.25;11401666;26;20001;-56
2024/04/16 17:39:16;;;;;;;6.38;2.47;;;;;;;16.93;59.47;100551.94;11427612;26;20215;-56
2024/04/16 17:44:16;;;;;;;5.90;2.00;;;;;;;16.93;58.92;100566.13;11428562;26;20001;-56
2024/04/16 17:49:18;;;;;;;6.00;2.15;;;;;;;16.92;59.14;100563.72;11428633;25;20002;-55
2024/04/16 17:54:18;;;;;;;9.25;2.35;;;;;;;16.92;59.34;100572.53;11427915;25;19993;-56
2024/04/16 17:59:20;;;;;;;6.10;1.97;;;;;;;16.92;58.97;100577.91;11426088;26;20009;-55
2024/04/16 18:04:20;;;;;;;9.30;2.55;;;;;;;16.92;58.78;100591.28;11407139;25;20222;-56
2024/04/16 18:09:20;;;;;;;3.73;1.60;;;;;;;16.99;58.12;100596.31;11409117;25;20005;-55
2024/04/16 18:14:21;;;;;;;5.68;2.38;;;;;;;17.02;58.14;100601.09;11412886;25;20367;-56
2024/04/16 18:19:21;;;;;;;5.27;2.10;;;;;;;17.07;58.55;100613.63;11468786;25;20332;-55
2024/04/16 18:24:21;;;;;;;13.03;2.63;;;;;;;17.09;58.74;100625.66;11439915;25;20255;-56
2024/04/16 18:29:22;;;;;;;6.27;2.73;;;;;;;17.13;58.40;100631.22;11425768;26;20234;-56
2024/04/16 18:34:22;;;;;;;10.47;3.57;;;;;;;17.16;58.21;100642.16;11426508;26;20234;-56
2024/04/16 18:39:22;;;;;;;7.82;2.58;;;;;;;17.14;58.55;100644.34;11425727;26;20223;-56
2024/04/16 18:44:23;;;;;;;8.33;2.80;;;;;;;17.10;58.04;100650.56;11430183;25;20073;-55
2024/04/16 18:49:26;;;;;;;5.97;2.50;;;;;;;17.03;58.82;100653.56;11441174;25;20689;-55
2024/04/16 18:54:26;;;;;;;4.28;2.22;;;;;;;17.05;58.63;100666.69;11432084;25;20339;-55
2024/04/16 18:59:27;;;;;;;10.88;5.32;;;;;;;17.09;59.14;100676.56;11432620;25;20630;-58
2024/04/16 19:04:32;;;;;;;6.72;2.83;;;;;;;17.16;58.56;100681.53;11406601;25;20332;-56
2024/04/16 19:09:33;;;;;;;8.77;2.85;;;;;;;17.18;58.17;100707.00;11456743;25;20037;-56
2024/04/16 19:14:33;;;;;;;9.93;2.80;;;;;;;17.17;58.70;100707.28;11453559;25;20001;-56
2024/04/16 19:19:35;;;;;;;9.55;3.33;;;;;;;17.10;58.52;100717.53;11438754;25;19992;-57
2024/04/16 19:24:36;;;;;;;6.25;2.65;;;;;;;17.08;58.33;100725.06;11436384;25;20444;-56
2024/04/16 19:29:37;;;;;;;5.78;2.90;;;;;;;17.09;57.42;100726.66;11457196;25;20009;-56
2024/04/16 19:34:37;;;;;;;7.20;2.08;;;;;;;17.06;57.43;100746.00;11410354;25;20432;-56
2024/04/16 19:39:38;;;;;;;8.32;3.28;;;;;;;17.05;57.13;100752.41;11431635;25;19993;-56
2024/04/16 19:44:51;;;;;;;5.28;2.25;;;;;;;17.07;56.73;100761.78;11492625;25;20001;-56
2024/04/16 19:49:51;;;;;;;4.00;2.50;;;;;;;17.06;57.07;100772.78;11421036;26;20005;-56
2024/04/16 19:54:52;;;;;;;7.55;3.15;;;;;;;17.09;56.31;100772.19;11389590;25;20004;-55
2024/04/16 19:59:52;;;;;;;9.25;2.60;;;;;;;17.10;56.25;100771.13;11402051;26;19994;-57
2024/04/16 20:04:53;;;;;;;7.90;1.92;;;;;;;17.09;56.12;100782.91;11391464;26;19994;-56
2024/04/16 20:09:54;;;;;;;4.57;2.05;;;;;;;17.10;55.88;100784.50;11418817;26;19997;-56
2024/04/16 20:14:55;;;;;;;5.32;1.98;;;;;;;17.07;55.09;100793.91;11390070;25;19993;-56
2024/04/16 20:19:55;;;;;;;6.53;1.87;;;;;;;17.12;54.88;100791.19;11420401;25;20001;-55
2024/04/16 20:24:56;;;;;;;4.72;2.20;;;;;;;17.12;54.50;100801.09;11430786;25;20288;-56
2024/04/16 20:29:56;;;;;;;6.95;2.40;;;;;;;17.14;55.06;100815.00;11421257;26;19998;-56
2024/04/16 20:34:58;;;;;;;5.15;2.50;;;;;;;17.17;54.10;100817.13;11419947;25;20329;-56
2024/04/16 20:39:58;;;;;;;6.20;2.60;;;;;;;17.15;54.62;100816.59;11448317;25;20003;-55
2024/04/16 20:44:58;;;;;;;6.83;2.27;;;;;;;17.11;54.10;100816.38;11480607;25;19989;-56
2024/04/16 20:49:59;;;;;;;5.23;2.10;;;;;;;17.11;54.22;100826.28;11514000;25;20213;-57
2024/04/16 20:54:59;;;;;;;4.50;2.10;;;;;;;17.14;54.16;100828.41;11500842;25;20234;-57
2024/04/16 21:00:00;;;;;;;7.47;2.50;;;;;;;17.18;53.96;100832.94;11437001;26;19993;-57
2024/04/16 21:05:00;;;;;;;5.50;1.30;;;;;;;17.18;53.60;100843.66;11435070;26;20210;-56
2024/04/16 21:10:00;;;;;;;4.63;1.90;;;;;;;17.15;53.44;100854.09;11440380;25;20638;-57
2024/04/16 21:15:01;;;;;;;4.20;2.00;;;;;;;17.12;53.40;100849.31;11403077;26;20218;-56
2024/04/16 21:20:01;;;;;;;7.45;1.90;;;;;;;17.20;53.63;100859.44;11435704;25;20650;-57
2024/04/16 21:25:01;;;;;;;4.95;2.45;;;;;;;17.20;52.94;100857.56;11442409;25;20096;-57
2024/04/16 21:30:02;;;;;;;2.53;1.45;;;;;;;17.15;53.65;100857.59;11434700;26;20008;-57
2024/04/16 21:35:02;;;;;;;4.28;1.73;;;;;;;17.17;53.22;100860.00;11426972;26;19993;-57
2024/04/16 21:40:03;;;;;;;6.18;2.83;;;;;;;17.21;52.53;100867.19;11444545;25;19989;-57
2024/04/16 21:45:04;;;;;;;4.07;1.80;;;;;;;17.21;52.67;100866.41;11508457;25;19989;-58
2024/04/16 21:50:05;;;;;;;3.10;1.58;;;;;;;17.19;53.09;100872.03;11503581;25;20444;-57
2024/04/16 21:55:05;;;;;;;3.60;1.73;;;;;;;17.15;52.56;100870.19;11491125;25;20006;-57
2024/04/16 22:00:07;;;;;;;5.32;1.65;;;;;;;17.19;52.23;100877.41;11425564;26;19989;-57
2024/04/16 22:05:08;;;;;;;6.63;1.75;;;;;;;17.20;52.23;100872.84;11427352;25;20001;-58
2024/04/16 22:10:08;;;;;;;4.93;1.58;;;;;;;17.11;52.57;100877.19;11399065;25;20066;-58
2024/04/16 22:27:02;;;;;;;3.95;1.30;;;;;;;17.12;51.70;100897.56;11463992;25;19993;-57
2024/04/16 22:32:03;;;;;;;4.93;1.90;;;;;;;17.12;51.62;100898.34;11418678;26;20443;-58
2024/04/16 22:37:04;;;;;;;6.93;2.30;;;;;;;17.19;51.67;100901.50;11426938;26;20007;-58
2024/04/16 22:42:04;;;;;;;4.13;1.85;;;;;;;17.20;51.32;100908.47;11466539;25;20711;-58
2024/04/16 22:47:04;;;;;;;3.70;1.33;;;;;;;17.16;51.81;100906.63;11503067;25;19992;-58
2024/04/16 22:52:05;;;;;;;3.42;1.10;;;;;;;17.18;51.51;100907.94;11503505;25;19996;-57
2024/04/16 22:57:05;;;;;;;4.30;1.67;;;;;;;17.14;51.66;100912.25;11500193;25;19997;-58
2024/04/16 23:02:05;;;;;;;4.47;1.53;;;;;;;17.15;51.44;100919.22;11503511;25;20217;-57
2024/04/16 23:07:06;;;;;;;5.80;1.70;;;;;;;17.17;51.12;100927.78;11502415;25;21081;-57
2024/04/16 23:12:06;;;;;;;4.32;1.40;;;;;;;17.16;51.43;100936.09;11464123;25;20012;-57
2024/04/16 23:17:07;;;;;;;4.20;1.45;;;;;;;17.16;50.94;100933.41;11424480;26;20008;-57